sensor_id;sensor_type;location;lat;lon;timestamp;P1;durP1;ratioP1;P2;durP2;ratioP2
9898;SDS011;4988;49.238;6.698;2022-10-01T00:00:49;15.40;;;7.23;;
9898;SDS011;4988;49.238;6.698;2022-10-01T00:03:16;12.97;;;5.93;;
9898;SDS011;4988;49.238;6.698;2022-10-01T00:05:42;8.50;;;5.73;;
9898;SDS011;4988;49.238;6.698;2022-10-01T00:08:08;6.53;;;4.93;;
9898;SDS011;4988;49.238;6.698;2022-10-01T00:10:33;6.43;;;5.00;;
9898;SDS011;4988;49.238;6.698;2022-10-01T00:13:00;7.67;;;4.80;;
9898;SDS011;4988;49.238;6.698;2022-10-01T00:15:26;9.70;;;5.10;;
9898;SDS011;4988;49.238;6.698;2022-10-01T00:17:52;9.13;;;4.97;;
9898;SDS011;4988;49.238;6.698;2022-10-01T00:20:17;8.10;;;4.83;;
9898;SDS011;4988;49.238;6.698;2022-10-01T00:22:43;7.90;;;4.60;;
9898;SDS011;4988;49.238;6.698;2022-10-01T00:25:09;6.20;;;4.57;;
9898;SDS011;4988;49.238;6.698;2022-10-01T00:27:34;6.60;;;5.07;;
9898;SDS011;4988;49.238;6.698;2022-10-01T00:30:01;8.03;;;5.10;;
9898;SDS011;4988;49.238;6.698;2022-10-01T00:32:28;7.37;;;4.73;;
9898;SDS011;4988;49.238;6.698;2022-10-01T00:34:56;8.03;;;4.60;;
9898;SDS011;4988;49.238;6.698;2022-10-01T00:37:22;7.87;;;5.30;;
9898;SDS011;4988;49.238;6.698;2022-10-01T00:39:48;7.93;;;4.40;;
9898;SDS011;4988;49.238;6.698;2022-10-01T00:42:15;7.37;;;5.20;;
9898;SDS011;4988;49.238;6.698;2022-10-01T00:44:42;6.10;;;4.40;;
9898;SDS011;4988;49.238;6.698;2022-10-01T00:47:25;8.17;;;4.57;;
9898;SDS011;4988;49.238;6.698;2022-10-01T00:50:21;7.17;;;4.60;;
9898;SDS011;4988;49.238;6.698;2022-10-01T00:52:51;6.97;;;4.67;;
9898;SDS011;4988;49.238;6.698;2022-10-01T00:55:31;9.17;;;4.93;;
9898;SDS011;4988;49.238;6.698;2022-10-01T00:58:00;6.53;;;4.57;;
9898;SDS011;4988;49.238;6.698;2022-10-01T01:00:27;5.90;;;4.70;;
9898;SDS011;4988;49.238;6.698;2022-10-01T01:02:53;6.13;;;5.00;;
9898;SDS011;4988;49.238;6.698;2022-10-01T01:05:19;6.70;;;4.80;;
9898;SDS011;4988;49.238;6.698;2022-10-01T01:07:47;8.03;;;4.67;;
9898;SDS011;4988;49.238;6.698;2022-10-01T01:10:15;6.93;;;4.90;;
9898;SDS011;4988;49.238;6.698;2022-10-01T01:12:46;6.80;;;4.20;;
9898;SDS011;4988;49.238;6.698;2022-10-01T01:21:12;8.10;;;4.27;;
9898;SDS011;4988;49.238;6.698;2022-10-01T01:26:33;6.30;;;4.10;;
9898;SDS011;4988;49.238;6.698;2022-10-01T01:29:09;7.07;;;4.43;;
9898;SDS011;4988;49.238;6.698;2022-10-01T01:31:42;6.50;;;4.60;;
9898;SDS011;4988;49.238;6.698;2022-10-01T01:34:14;6.43;;;4.30;;
9898;SDS011;4988;49.238;6.698;2022-10-01T01:36:45;7.63;;;4.77;;
9898;SDS011;4988;49.238;6.698;2022-10-01T01:39:18;6.57;;;4.60;;
9898;SDS011;4988;49.238;6.698;2022-10-01T01:41:48;5.83;;;4.10;;
9898;SDS011;4988;49.238;6.698;2022-10-01T01:44:19;5.70;;;4.03;;
9898;SDS011;4988;49.238;6.698;2022-10-01T01:46:49;6.97;;;4.63;;
9898;SDS011;4988;49.238;6.698;2022-10-01T01:49:16;6.60;;;4.03;;
9898;SDS011;4988;49.238;6.698;2022-10-01T01:54:15;8.27;;;4.20;;
9898;SDS011;4988;49.238;6.698;2022-10-01T01:56:41;6.90;;;4.10;;
9898;SDS011;4988;49.238;6.698;2022-10-01T01:59:06;6.03;;;4.47;;
9898;SDS011;4988;49.238;6.698;2022-10-01T02:01:39;7.53;;;4.57;;
9898;SDS011;4988;49.238;6.698;2022-10-01T02:04:12;7.73;;;4.43;;
9898;SDS011;4988;49.238;6.698;2022-10-01T02:09:34;6.13;;;4.23;;
9898;SDS011;4988;49.238;6.698;2022-10-01T02:12:19;7.10;;;4.00;;
9898;SDS011;4988;49.238;6.698;2022-10-01T02:14:53;6.17;;;3.90;;
9898;SDS011;4988;49.238;6.698;2022-10-01T02:17:42;12.00;;;4.30;;
9898;SDS011;4988;49.238;6.698;2022-10-01T02:22:56;6.27;;;3.90;;
9898;SDS011;4988;49.238;6.698;2022-10-01T02:25:27;5.67;;;4.00;;
9898;SDS011;4988;49.238;6.698;2022-10-01T02:28:08;4.80;;;4.00;;
9898;SDS011;4988;49.238;6.698;2022-10-01T02:30:36;6.77;;;4.00;;
9898;SDS011;4988;49.238;6.698;2022-10-01T02:33:03;6.60;;;3.97;;
9898;SDS011;4988;49.238;6.698;2022-10-01T02:35:32;10.00;;;4.23;;
9898;SDS011;4988;49.238;6.698;2022-10-01T02:38:00;5.27;;;4.03;;
9898;SDS011;4988;49.238;6.698;2022-10-01T02:40:28;5.70;;;4.50;;
9898;SDS011;4988;49.238;6.698;2022-10-01T02:42:58;5.27;;;4.27;;
9898;SDS011;4988;49.238;6.698;2022-10-01T02:45:30;8.37;;;4.70;;
9898;SDS011;4988;49.238;6.698;2022-10-01T02:47:59;7.23;;;4.50;;
9898;SDS011;4988;49.238;6.698;2022-10-01T02:50:30;6.77;;;4.80;;
9898;SDS011;4988;49.238;6.698;2022-10-01T02:56:04;6.23;;;4.60;;
9898;SDS011;4988;49.238;6.698;2022-10-01T02:58:32;6.10;;;4.87;;
9898;SDS011;4988;49.238;6.698;2022-10-01T03:00:57;8.70;;;4.63;;
9898;SDS011;4988;49.238;6.698;2022-10-01T03:03:23;9.67;;;5.13;;
9898;SDS011;4988;49.238;6.698;2022-10-01T03:05:50;9.20;;;4.83;;
9898;SDS011;4988;49.238;6.698;2022-10-01T03:08:15;7.50;;;5.00;;
9898;SDS011;4988;49.238;6.698;2022-10-01T03:10:40;6.33;;;5.07;;
9898;SDS011;4988;49.238;6.698;2022-10-01T03:13:06;9.10;;;4.90;;
9898;SDS011;4988;49.238;6.698;2022-10-01T03:15:31;6.17;;;4.70;;
9898;SDS011;4988;49.238;6.698;2022-10-01T03:17:57;9.33;;;4.83;;
9898;SDS011;4988;49.238;6.698;2022-10-01T03:20:22;8.83;;;4.93;;
9898;SDS011;4988;49.238;6.698;2022-10-01T03:22:48;10.43;;;5.30;;
9898;SDS011;4988;49.238;6.698;2022-10-01T03:25:14;7.87;;;5.60;;
9898;SDS011;4988;49.238;6.698;2022-10-01T03:27:40;8.03;;;4.80;;
9898;SDS011;4988;49.238;6.698;2022-10-01T03:30:05;8.60;;;4.63;;
9898;SDS011;4988;49.238;6.698;2022-10-01T03:32:32;7.00;;;5.10;;
9898;SDS011;4988;49.238;6.698;2022-10-01T03:34:57;9.67;;;5.27;;
9898;SDS011;4988;49.238;6.698;2022-10-01T03:37:23;7.00;;;5.43;;
9898;SDS011;4988;49.238;6.698;2022-10-01T03:39:49;10.50;;;5.60;;
9898;SDS011;4988;49.238;6.698;2022-10-01T03:42:14;7.00;;;4.80;;
9898;SDS011;4988;49.238;6.698;2022-10-01T03:44:39;5.90;;;4.70;;
9898;SDS011;4988;49.238;6.698;2022-10-01T03:47:05;8.90;;;5.03;;
9898;SDS011;4988;49.238;6.698;2022-10-01T03:49:30;8.07;;;4.73;;
9898;SDS011;4988;49.238;6.698;2022-10-01T03:51:56;8.47;;;4.80;;
9898;SDS011;4988;49.238;6.698;2022-10-01T03:54:21;5.73;;;5.00;;
9898;SDS011;4988;49.238;6.698;2022-10-01T03:56:46;7.17;;;4.67;;
9898;SDS011;4988;49.238;6.698;2022-10-01T03:59:12;6.10;;;4.87;;
9898;SDS011;4988;49.238;6.698;2022-10-01T04:01:38;7.30;;;5.00;;
9898;SDS011;4988;49.238;6.698;2022-10-01T04:04:04;5.93;;;4.67;;
9898;SDS011;4988;49.238;6.698;2022-10-01T04:06:30;6.53;;;4.77;;
9898;SDS011;4988;49.238;6.698;2022-10-01T04:08:56;9.40;;;5.53;;
9898;SDS011;4988;49.238;6.698;2022-10-01T04:11:21;6.90;;;5.20;;
9898;SDS011;4988;49.238;6.698;2022-10-01T04:13:46;9.37;;;5.30;;
9898;SDS011;4988;49.238;6.698;2022-10-01T04:16:12;7.27;;;5.20;;
9898;SDS011;4988;49.238;6.698;2022-10-01T04:18:37;7.53;;;5.00;;
9898;SDS011;4988;49.238;6.698;2022-10-01T04:21:03;7.63;;;5.30;;
9898;SDS011;4988;49.238;6.698;2022-10-01T04:23:29;8.47;;;5.43;;
9898;SDS011;4988;49.238;6.698;2022-10-01T04:25:57;11.07;;;5.40;;
9898;SDS011;4988;49.238;6.698;2022-10-01T04:28:29;8.70;;;5.37;;
9898;SDS011;4988;49.238;6.698;2022-10-01T04:30:55;7.00;;;5.53;;
9898;SDS011;4988;49.238;6.698;2022-10-01T04:33:39;7.77;;;5.10;;
9898;SDS011;4988;49.238;6.698;2022-10-01T04:36:05;8.30;;;5.70;;
9898;SDS011;4988;49.238;6.698;2022-10-01T04:38:30;7.83;;;5.63;;
9898;SDS011;4988;49.238;6.698;2022-10-01T04:40:56;9.53;;;5.30;;
9898;SDS011;4988;49.238;6.698;2022-10-01T04:43:21;8.67;;;4.70;;
9898;SDS011;4988;49.238;6.698;2022-10-01T04:45:46;9.87;;;5.87;;
9898;SDS011;4988;49.238;6.698;2022-10-01T04:48:12;8.07;;;5.63;;
9898;SDS011;4988;49.238;6.698;2022-10-01T04:50:37;7.00;;;5.73;;
9898;SDS011;4988;49.238;6.698;2022-10-01T04:53:02;6.20;;;4.70;;
9898;SDS011;4988;49.238;6.698;2022-10-01T04:55:28;7.67;;;5.30;;
9898;SDS011;4988;49.238;6.698;2022-10-01T04:57:53;11.77;;;5.67;;
9898;SDS011;4988;49.238;6.698;2022-10-01T05:00:19;9.50;;;5.67;;
9898;SDS011;4988;49.238;6.698;2022-10-01T05:02:48;8.23;;;6.00;;
9898;SDS011;4988;49.238;6.698;2022-10-01T05:05:15;9.27;;;5.90;;
9898;SDS011;4988;49.238;6.698;2022-10-01T05:07:42;9.17;;;5.83;;
9898;SDS011;4988;49.238;6.698;2022-10-01T05:10:09;9.00;;;5.63;;
9898;SDS011;4988;49.238;6.698;2022-10-01T05:12:36;7.50;;;5.87;;
9898;SDS011;4988;49.238;6.698;2022-10-01T05:15:01;12.40;;;6.47;;
9898;SDS011;4988;49.238;6.698;2022-10-01T05:17:27;11.63;;;6.03;;
9898;SDS011;4988;49.238;6.698;2022-10-01T05:19:53;9.40;;;5.97;;
9898;SDS011;4988;49.238;6.698;2022-10-01T05:22:18;7.93;;;6.20;;
9898;SDS011;4988;49.238;6.698;2022-10-01T05:24:43;9.43;;;6.63;;
9898;SDS011;4988;49.238;6.698;2022-10-01T05:27:09;9.20;;;6.57;;
9898;SDS011;4988;49.238;6.698;2022-10-01T05:29:36;8.33;;;6.37;;
9898;SDS011;4988;49.238;6.698;2022-10-01T05:32:01;10.57;;;6.47;;
9898;SDS011;4988;49.238;6.698;2022-10-01T05:34:27;9.93;;;6.17;;
9898;SDS011;4988;49.238;6.698;2022-10-01T05:36:53;11.97;;;6.53;;
9898;SDS011;4988;49.238;6.698;2022-10-01T05:39:18;9.43;;;6.67;;
9898;SDS011;4988;49.238;6.698;2022-10-01T05:41:44;8.67;;;6.77;;
9898;SDS011;4988;49.238;6.698;2022-10-01T05:44:09;9.37;;;6.93;;
9898;SDS011;4988;49.238;6.698;2022-10-01T05:46:34;10.60;;;7.20;;
9898;SDS011;4988;49.238;6.698;2022-10-01T05:49:00;11.93;;;7.03;;
9898;SDS011;4988;49.238;6.698;2022-10-01T05:51:26;9.93;;;6.93;;
9898;SDS011;4988;49.238;6.698;2022-10-01T05:53:54;9.33;;;7.03;;
9898;SDS011;4988;49.238;6.698;2022-10-01T05:56:23;11.53;;;6.63;;
9898;SDS011;4988;49.238;6.698;2022-10-01T05:58:49;8.63;;;6.93;;
9898;SDS011;4988;49.238;6.698;2022-10-01T06:01:14;9.83;;;7.20;;
9898;SDS011;4988;49.238;6.698;2022-10-01T06:03:39;11.03;;;6.90;;
9898;SDS011;4988;49.238;6.698;2022-10-01T06:06:04;9.53;;;7.00;;
9898;SDS011;4988;49.238;6.698;2022-10-01T06:08:32;11.27;;;7.30;;
9898;SDS011;4988;49.238;6.698;2022-10-01T06:10:59;11.17;;;7.20;;
9898;SDS011;4988;49.238;6.698;2022-10-01T06:13:26;9.37;;;6.83;;
9898;SDS011;4988;49.238;6.698;2022-10-01T06:15:52;9.23;;;6.10;;
9898;SDS011;4988;49.238;6.698;2022-10-01T06:18:18;8.23;;;6.30;;
9898;SDS011;4988;49.238;6.698;2022-10-01T06:20:43;8.30;;;5.40;;
9898;SDS011;4988;49.238;6.698;2022-10-01T06:23:09;6.53;;;5.60;;
9898;SDS011;4988;49.238;6.698;2022-10-01T06:25:37;7.53;;;5.37;;
9898;SDS011;4988;49.238;6.698;2022-10-01T06:28:08;7.03;;;5.47;;
9898;SDS011;4988;49.238;6.698;2022-10-01T06:30:36;5.60;;;4.60;;
9898;SDS011;4988;49.238;6.698;2022-10-01T06:33:05;7.77;;;5.80;;
9898;SDS011;4988;49.238;6.698;2022-10-01T06:35:33;8.23;;;5.63;;
9898;SDS011;4988;49.238;6.698;2022-10-01T06:38:00;8.23;;;5.77;;
9898;SDS011;4988;49.238;6.698;2022-10-01T06:40:27;6.33;;;5.00;;
9898;SDS011;4988;49.238;6.698;2022-10-01T06:42:55;6.73;;;5.53;;
9898;SDS011;4988;49.238;6.698;2022-10-01T06:45:25;8.43;;;5.60;;
9898;SDS011;4988;49.238;6.698;2022-10-01T06:47:55;7.53;;;5.80;;
9898;SDS011;4988;49.238;6.698;2022-10-01T06:50:22;6.77;;;5.73;;
9898;SDS011;4988;49.238;6.698;2022-10-01T06:52:49;7.93;;;5.47;;
9898;SDS011;4988;49.238;6.698;2022-10-01T06:55:15;9.13;;;6.30;;
9898;SDS011;4988;49.238;6.698;2022-10-01T06:57:41;8.60;;;6.90;;
9898;SDS011;4988;49.238;6.698;2022-10-01T07:00:06;8.30;;;6.80;;
9898;SDS011;4988;49.238;6.698;2022-10-01T07:02:32;10.80;;;7.67;;
9898;SDS011;4988;49.238;6.698;2022-10-01T07:04:58;9.50;;;7.80;;
9898;SDS011;4988;49.238;6.698;2022-10-01T07:07:24;9.87;;;7.60;;
9898;SDS011;4988;49.238;6.698;2022-10-01T07:09:53;10.87;;;7.40;;
9898;SDS011;4988;49.238;6.698;2022-10-01T07:12:18;9.30;;;6.80;;
9898;SDS011;4988;49.238;6.698;2022-10-01T07:14:44;7.57;;;6.20;;
9898;SDS011;4988;49.238;6.698;2022-10-01T07:17:09;6.87;;;5.50;;
9898;SDS011;4988;49.238;6.698;2022-10-01T07:19:35;6.43;;;5.73;;
9898;SDS011;4988;49.238;6.698;2022-10-01T07:22:00;6.83;;;5.50;;
9898;SDS011;4988;49.238;6.698;2022-10-01T07:24:25;11.53;;;5.20;;
9898;SDS011;4988;49.238;6.698;2022-10-01T07:26:51;6.83;;;5.40;;
9898;SDS011;4988;49.238;6.698;2022-10-01T07:29:19;6.27;;;5.03;;
9898;SDS011;4988;49.238;6.698;2022-10-01T07:31:46;6.87;;;5.03;;
9898;SDS011;4988;49.238;6.698;2022-10-01T07:34:11;7.27;;;5.20;;
9898;SDS011;4988;49.238;6.698;2022-10-01T07:36:37;5.90;;;4.90;;
9898;SDS011;4988;49.238;6.698;2022-10-01T07:39:02;5.13;;;4.63;;
9898;SDS011;4988;49.238;6.698;2022-10-01T07:41:28;4.57;;;4.13;;
9898;SDS011;4988;49.238;6.698;2022-10-01T07:43:53;6.93;;;4.70;;
9898;SDS011;4988;49.238;6.698;2022-10-01T07:46:18;4.77;;;4.10;;
9898;SDS011;4988;49.238;6.698;2022-10-01T07:48:44;5.67;;;4.20;;
9898;SDS011;4988;49.238;6.698;2022-10-01T07:51:11;5.93;;;4.23;;
9898;SDS011;4988;49.238;6.698;2022-10-01T07:53:37;4.30;;;3.90;;
9898;SDS011;4988;49.238;6.698;2022-10-01T07:56:02;4.83;;;3.23;;
9898;SDS011;4988;49.238;6.698;2022-10-01T07:58:27;3.83;;;3.43;;
9898;SDS011;4988;49.238;6.698;2022-10-01T08:00:53;4.33;;;3.60;;
9898;SDS011;4988;49.238;6.698;2022-10-01T08:03:22;3.70;;;3.40;;
9898;SDS011;4988;49.238;6.698;2022-10-01T08:05:48;3.53;;;3.23;;
9898;SDS011;4988;49.238;6.698;2022-10-01T08:08:14;3.93;;;3.40;;
9898;SDS011;4988;49.238;6.698;2022-10-01T08:10:39;3.80;;;3.40;;
9898;SDS011;4988;49.238;6.698;2022-10-01T08:13:06;3.60;;;3.10;;
9898;SDS011;4988;49.238;6.698;2022-10-01T08:15:39;3.57;;;2.73;;
9898;SDS011;4988;49.238;6.698;2022-10-01T08:18:05;3.77;;;2.80;;
9898;SDS011;4988;49.238;6.698;2022-10-01T08:20:31;3.20;;;2.90;;
9898;SDS011;4988;49.238;6.698;2022-10-01T08:23:04;3.40;;;3.10;;
9898;SDS011;4988;49.238;6.698;2022-10-01T08:25:31;3.10;;;2.80;;
9898;SDS011;4988;49.238;6.698;2022-10-01T08:27:57;2.87;;;2.60;;
9898;SDS011;4988;49.238;6.698;2022-10-01T08:30:24;2.80;;;2.50;;
9898;SDS011;4988;49.238;6.698;2022-10-01T08:32:52;2.50;;;2.30;;
9898;SDS011;4988;49.238;6.698;2022-10-01T08:35:19;2.83;;;2.53;;
9898;SDS011;4988;49.238;6.698;2022-10-01T08:37:44;4.07;;;2.37;;
9898;SDS011;4988;49.238;6.698;2022-10-01T08:40:10;2.60;;;2.40;;
9898;SDS011;4988;49.238;6.698;2022-10-01T08:45:40;2.40;;;2.30;;
9898;SDS011;4988;49.238;6.698;2022-10-01T08:48:14;2.40;;;2.20;;
9898;SDS011;4988;49.238;6.698;2022-10-01T08:50:54;2.40;;;2.20;;
9898;SDS011;4988;49.238;6.698;2022-10-01T08:53:29;1.80;;;1.70;;
9898;SDS011;4988;49.238;6.698;2022-10-01T08:56:00;1.90;;;1.80;;
9898;SDS011;4988;49.238;6.698;2022-10-01T08:58:28;2.10;;;2.00;;
9898;SDS011;4988;49.238;6.698;2022-10-01T09:01:04;1.73;;;1.63;;
9898;SDS011;4988;49.238;6.698;2022-10-01T09:03:30;2.23;;;2.10;;
9898;SDS011;4988;49.238;6.698;2022-10-01T09:08:49;2.17;;;2.00;;
9898;SDS011;4988;49.238;6.698;2022-10-01T09:14:22;1.97;;;1.87;;
9898;SDS011;4988;49.238;6.698;2022-10-01T09:24:59;2.60;;;1.90;;
9898;SDS011;4988;49.238;6.698;2022-10-01T09:27:35;2.00;;;1.90;;
9898;SDS011;4988;49.238;6.698;2022-10-01T09:32:42;2.00;;;1.90;;
9898;SDS011;4988;49.238;6.698;2022-10-01T09:35:26;1.97;;;1.87;;
9898;SDS011;4988;49.238;6.698;2022-10-01T09:38:01;1.93;;;1.83;;
9898;SDS011;4988;49.238;6.698;2022-10-01T09:40:37;1.90;;;1.80;;
9898;SDS011;4988;49.238;6.698;2022-10-01T09:43:05;2.57;;;2.37;;
9898;SDS011;4988;49.238;6.698;2022-10-01T09:45:33;2.50;;;2.13;;
9898;SDS011;4988;49.238;6.698;2022-10-01T09:48:03;2.87;;;1.90;;
9898;SDS011;4988;49.238;6.698;2022-10-01T09:50:40;2.13;;;2.03;;
9898;SDS011;4988;49.238;6.698;2022-10-01T09:53:15;1.90;;;1.80;;
9898;SDS011;4988;49.238;6.698;2022-10-01T09:55:44;1.80;;;1.70;;
9898;SDS011;4988;49.238;6.698;2022-10-01T09:58:17;2.00;;;1.90;;
9898;SDS011;4988;49.238;6.698;2022-10-01T10:00:48;2.80;;;2.00;;
9898;SDS011;4988;49.238;6.698;2022-10-01T10:03:27;3.63;;;2.50;;
9898;SDS011;4988;49.238;6.698;2022-10-01T10:05:58;2.13;;;2.03;;
9898;SDS011;4988;49.238;6.698;2022-10-01T10:08:26;2.30;;;2.10;;
9898;SDS011;4988;49.238;6.698;2022-10-01T10:11:01;2.20;;;2.10;;
9898;SDS011;4988;49.238;6.698;2022-10-01T10:15:59;2.83;;;2.20;;
9898;SDS011;4988;49.238;6.698;2022-10-01T10:18:34;3.40;;;2.53;;
9898;SDS011;4988;49.238;6.698;2022-10-01T10:21:14;2.00;;;1.90;;
9898;SDS011;4988;49.238;6.698;2022-10-01T10:24:02;2.23;;;1.97;;
9898;SDS011;4988;49.238;6.698;2022-10-01T10:26:37;3.73;;;2.00;;
9898;SDS011;4988;49.238;6.698;2022-10-01T10:29:04;2.73;;;2.23;;
9898;SDS011;4988;49.238;6.698;2022-10-01T10:31:39;4.90;;;2.10;;
9898;SDS011;4988;49.238;6.698;2022-10-01T10:34:10;3.60;;;2.33;;
9898;SDS011;4988;49.238;6.698;2022-10-01T10:36:40;2.30;;;2.17;;
9898;SDS011;4988;49.238;6.698;2022-10-01T10:39:16;3.10;;;2.10;;
9898;SDS011;4988;49.238;6.698;2022-10-01T10:41:48;3.47;;;2.40;;
9898;SDS011;4988;49.238;6.698;2022-10-01T10:44:16;2.63;;;2.17;;
9898;SDS011;4988;49.238;6.698;2022-10-01T10:46:46;2.63;;;2.43;;
9898;SDS011;4988;49.238;6.698;2022-10-01T10:51:49;2.93;;;2.70;;
9898;SDS011;4988;49.238;6.698;2022-10-01T10:54:19;2.17;;;2.00;;
9898;SDS011;4988;49.238;6.698;2022-10-01T10:56:51;5.13;;;2.50;;
9898;SDS011;4988;49.238;6.698;2022-10-01T10:59:18;2.90;;;2.57;;
9898;SDS011;4988;49.238;6.698;2022-10-01T11:01:43;4.40;;;2.13;;
9898;SDS011;4988;49.238;6.698;2022-10-01T11:04:24;2.53;;;1.87;;
9898;SDS011;4988;49.238;6.698;2022-10-01T11:06:54;4.50;;;2.00;;
9898;SDS011;4988;49.238;6.698;2022-10-01T11:09:21;2.97;;;1.80;;
9898;SDS011;4988;49.238;6.698;2022-10-01T11:11:56;2.57;;;1.90;;
9898;SDS011;4988;49.238;6.698;2022-10-01T11:14:44;2.20;;;2.00;;
9898;SDS011;4988;49.238;6.698;2022-10-01T11:17:28;3.60;;;1.90;;
9898;SDS011;4988;49.238;6.698;2022-10-01T11:20:17;3.63;;;2.43;;
9898;SDS011;4988;49.238;6.698;2022-10-01T11:26:03;3.67;;;2.00;;
9898;SDS011;4988;49.238;6.698;2022-10-01T11:29:04;2.13;;;1.80;;
9898;SDS011;4988;49.238;6.698;2022-10-01T11:39:41;5.53;;;2.23;;
9898;SDS011;4988;49.238;6.698;2022-10-01T11:42:10;7.93;;;2.40;;
9898;SDS011;4988;49.238;6.698;2022-10-01T11:44:44;6.70;;;2.50;;
9898;SDS011;4988;49.238;6.698;2022-10-01T11:47:18;5.80;;;2.20;;
9898;SDS011;4988;49.238;6.698;2022-10-01T11:49:58;4.33;;;2.00;;
9898;SDS011;4988;49.238;6.698;2022-10-01T11:55:03;7.37;;;2.13;;
9898;SDS011;4988;49.238;6.698;2022-10-01T11:58:17;5.70;;;1.90;;
9898;SDS011;4988;49.238;6.698;2022-10-01T12:01:22;10.07;;;2.30;;
9898;SDS011;4988;49.238;6.698;2022-10-01T12:04:16;5.07;;;2.13;;
9898;SDS011;4988;49.238;6.698;2022-10-01T12:07:10;4.40;;;1.80;;
9898;SDS011;4988;49.238;6.698;2022-10-01T12:12:32;4.67;;;2.00;;
9898;SDS011;4988;49.238;6.698;2022-10-01T12:15:07;3.40;;;1.70;;
9898;SDS011;4988;49.238;6.698;2022-10-01T12:17:40;9.00;;;2.03;;
9898;SDS011;4988;49.238;6.698;2022-10-01T12:20:16;4.20;;;1.70;;
9898;SDS011;4988;49.238;6.698;2022-10-01T12:22:47;5.53;;;1.83;;
9898;SDS011;4988;49.238;6.698;2022-10-01T12:25:14;8.83;;;2.03;;
9898;SDS011;4988;49.238;6.698;2022-10-01T12:30:21;7.27;;;1.97;;
9898;SDS011;4988;49.238;6.698;2022-10-01T12:50:24;4.73;;;1.70;;
9898;SDS011;4988;49.238;6.698;2022-10-01T12:58:46;5.57;;;1.80;;
9898;SDS011;4988;49.238;6.698;2022-10-01T13:10:09;5.17;;;1.70;;
9898;SDS011;4988;49.238;6.698;2022-10-01T13:15:33;5.60;;;1.70;;
9898;SDS011;4988;49.238;6.698;2022-10-01T13:20:55;2.83;;;1.43;;
9898;SDS011;4988;49.238;6.698;2022-10-01T13:26:19;5.10;;;1.73;;
9898;SDS011;4988;49.238;6.698;2022-10-01T13:31:37;9.50;;;2.17;;
9898;SDS011;4988;49.238;6.698;2022-10-01T13:34:48;4.30;;;1.77;;
9898;SDS011;4988;49.238;6.698;2022-10-01T13:39:53;9.93;;;2.87;;
9898;SDS011;4988;49.238;6.698;2022-10-01T13:45:00;8.97;;;2.30;;
9898;SDS011;4988;49.238;6.698;2022-10-01T13:47:29;7.63;;;2.30;;
9898;SDS011;4988;49.238;6.698;2022-10-01T13:52:30;5.87;;;2.40;;
9898;SDS011;4988;49.238;6.698;2022-10-01T13:54:57;10.67;;;3.00;;
9898;SDS011;4988;49.238;6.698;2022-10-01T13:57:28;10.57;;;3.60;;
9898;SDS011;4988;49.238;6.698;2022-10-01T14:02:38;8.03;;;2.27;;
9898;SDS011;4988;49.238;6.698;2022-10-01T14:07:58;10.83;;;3.07;;
9898;SDS011;4988;49.238;6.698;2022-10-01T14:10:53;8.13;;;2.97;;
9898;SDS011;4988;49.238;6.698;2022-10-01T14:13:53;10.33;;;3.10;;
9898;SDS011;4988;49.238;6.698;2022-10-01T14:16:45;8.57;;;2.80;;
9898;SDS011;4988;49.238;6.698;2022-10-01T14:19:18;8.57;;;2.20;;
9898;SDS011;4988;49.238;6.698;2022-10-01T14:22:04;6.50;;;2.70;;
9898;SDS011;4988;49.238;6.698;2022-10-01T14:24:41;6.27;;;2.30;;
9898;SDS011;4988;49.238;6.698;2022-10-01T14:27:12;5.90;;;2.33;;
9898;SDS011;4988;49.238;6.698;2022-10-01T14:37:43;12.03;;;2.70;;
9898;SDS011;4988;49.238;6.698;2022-10-01T14:42:43;8.60;;;2.40;;
9898;SDS011;4988;49.238;6.698;2022-10-01T14:45:13;9.77;;;2.27;;
9898;SDS011;4988;49.238;6.698;2022-10-01T14:47:39;7.03;;;2.83;;
9898;SDS011;4988;49.238;6.698;2022-10-01T14:50:08;6.70;;;2.20;;
9898;SDS011;4988;49.238;6.698;2022-10-01T14:52:36;12.40;;;2.67;;
9898;SDS011;4988;49.238;6.698;2022-10-01T14:55:12;9.87;;;2.47;;
9898;SDS011;4988;49.238;6.698;2022-10-01T14:57:44;9.93;;;2.63;;
9898;SDS011;4988;49.238;6.698;2022-10-01T15:00:14;8.50;;;2.80;;
9898;SDS011;4988;49.238;6.698;2022-10-01T15:05:32;11.13;;;2.43;;
9898;SDS011;4988;49.238;6.698;2022-10-01T15:10:47;6.57;;;2.33;;
9898;SDS011;4988;49.238;6.698;2022-10-01T15:13:27;8.97;;;3.00;;
9898;SDS011;4988;49.238;6.698;2022-10-01T15:15:56;8.10;;;2.30;;
9898;SDS011;4988;49.238;6.698;2022-10-01T15:18:22;10.53;;;3.00;;
9898;SDS011;4988;49.238;6.698;2022-10-01T15:20:51;15.00;;;2.97;;
9898;SDS011;4988;49.238;6.698;2022-10-01T15:23:21;10.07;;;2.90;;
9898;SDS011;4988;49.238;6.698;2022-10-01T15:25:47;11.27;;;2.70;;
9898;SDS011;4988;49.238;6.698;2022-10-01T15:28:14;8.67;;;2.60;;
9898;SDS011;4988;49.238;6.698;2022-10-01T15:30:49;11.70;;;3.00;;
9898;SDS011;4988;49.238;6.698;2022-10-01T15:33:19;10.40;;;2.80;;
9898;SDS011;4988;49.238;6.698;2022-10-01T15:35:59;14.00;;;3.27;;
9898;SDS011;4988;49.238;6.698;2022-10-01T15:38:27;8.57;;;2.87;;
9898;SDS011;4988;49.238;6.698;2022-10-01T15:40:55;9.77;;;2.70;;
9898;SDS011;4988;49.238;6.698;2022-10-01T15:43:23;16.20;;;3.37;;
9898;SDS011;4988;49.238;6.698;2022-10-01T15:48:28;14.70;;;3.00;;
9898;SDS011;4988;49.238;6.698;2022-10-01T15:50:57;10.93;;;3.20;;
9898;SDS011;4988;49.238;6.698;2022-10-01T15:53:26;13.53;;;3.30;;
9898;SDS011;4988;49.238;6.698;2022-10-01T15:55:52;12.00;;;2.70;;
9898;SDS011;4988;49.238;6.698;2022-10-01T15:58:25;10.60;;;3.20;;
9898;SDS011;4988;49.238;6.698;2022-10-01T16:01:05;16.40;;;3.50;;
9898;SDS011;4988;49.238;6.698;2022-10-01T16:06:01;16.27;;;3.03;;
9898;SDS011;4988;49.238;6.698;2022-10-01T16:08:30;9.87;;;3.03;;
9898;SDS011;4988;49.238;6.698;2022-10-01T16:11:12;14.40;;;3.37;;
9898;SDS011;4988;49.238;6.698;2022-10-01T16:13:44;16.83;;;3.80;;
9898;SDS011;4988;49.238;6.698;2022-10-01T16:18:38;16.03;;;2.90;;
9898;SDS011;4988;49.238;6.698;2022-10-01T16:21:05;9.77;;;3.27;;
9898;SDS011;4988;49.238;6.698;2022-10-01T16:31:21;13.00;;;3.17;;
9898;SDS011;4988;49.238;6.698;2022-10-01T16:33:48;8.83;;;2.80;;
9898;SDS011;4988;49.238;6.698;2022-10-01T16:36:14;11.73;;;2.50;;
9898;SDS011;4988;49.238;6.698;2022-10-01T16:38:46;9.60;;;2.30;;
9898;SDS011;4988;49.238;6.698;2022-10-01T16:41:13;7.07;;;2.73;;
9898;SDS011;4988;49.238;6.698;2022-10-01T16:43:46;7.23;;;2.37;;
9898;SDS011;4988;49.238;6.698;2022-10-01T16:46:12;9.63;;;2.30;;
9898;SDS011;4988;49.238;6.698;2022-10-01T16:48:37;11.57;;;2.63;;
9898;SDS011;4988;49.238;6.698;2022-10-01T16:51:02;13.90;;;2.63;;
9898;SDS011;4988;49.238;6.698;2022-10-01T16:53:28;10.33;;;2.30;;
9898;SDS011;4988;49.238;6.698;2022-10-01T16:55:53;8.50;;;2.93;;
9898;SDS011;4988;49.238;6.698;2022-10-01T16:58:20;8.77;;;2.60;;
9898;SDS011;4988;49.238;6.698;2022-10-01T17:00:45;13.53;;;3.10;;
9898;SDS011;4988;49.238;6.698;2022-10-01T17:03:15;7.80;;;2.40;;
9898;SDS011;4988;49.238;6.698;2022-10-01T17:05:42;15.07;;;3.03;;
9898;SDS011;4988;49.238;6.698;2022-10-01T17:08:08;10.27;;;2.40;;
9898;SDS011;4988;49.238;6.698;2022-10-01T17:10:41;13.00;;;2.80;;
9898;SDS011;4988;49.238;6.698;2022-10-01T17:13:12;15.47;;;3.00;;
9898;SDS011;4988;49.238;6.698;2022-10-01T17:15:39;11.67;;;3.00;;
9898;SDS011;4988;49.238;6.698;2022-10-01T17:18:05;12.77;;;2.90;;
9898;SDS011;4988;49.238;6.698;2022-10-01T17:20:32;9.33;;;2.83;;
9898;SDS011;4988;49.238;6.698;2022-10-01T17:22:58;12.43;;;2.97;;
9898;SDS011;4988;49.238;6.698;2022-10-01T17:25:27;14.87;;;3.00;;
9898;SDS011;4988;49.238;6.698;2022-10-01T17:27:56;13.37;;;3.23;;
9898;SDS011;4988;49.238;6.698;2022-10-01T17:30:22;7.90;;;2.77;;
9898;SDS011;4988;49.238;6.698;2022-10-01T17:32:48;12.03;;;3.27;;
9898;SDS011;4988;49.238;6.698;2022-10-01T17:35:14;11.13;;;3.20;;
9898;SDS011;4988;49.238;6.698;2022-10-01T17:37:40;15.93;;;3.00;;
9898;SDS011;4988;49.238;6.698;2022-10-01T17:40:06;15.97;;;3.37;;
9898;SDS011;4988;49.238;6.698;2022-10-01T17:42:33;14.53;;;3.47;;
9898;SDS011;4988;49.238;6.698;2022-10-01T17:44:59;12.53;;;3.30;;
9898;SDS011;4988;49.238;6.698;2022-10-01T17:47:26;8.73;;;3.07;;
9898;SDS011;4988;49.238;6.698;2022-10-01T17:49:51;10.77;;;2.97;;
9898;SDS011;4988;49.238;6.698;2022-10-01T17:52:17;10.30;;;3.10;;
9898;SDS011;4988;49.238;6.698;2022-10-01T17:54:43;18.80;;;3.40;;
9898;SDS011;4988;49.238;6.698;2022-10-01T17:57:08;12.50;;;2.90;;
9898;SDS011;4988;49.238;6.698;2022-10-01T17:59:35;8.73;;;2.93;;